createdAt,value
2016-05-26T00:00:56.248Z,1009.18
2016-05-26T00:01:56.298Z,1009.18
2016-05-26T00:02:56.316Z,1009.16
2016-05-26T00:03:56.351Z,1009.15
2016-05-26T00:04:56.384Z,1009.16
2016-05-26T00:05:56.418Z,1009.15
2016-05-26T00:06:56.452Z,1009.17
2016-05-26T00:07:56.486Z,1009.15
2016-05-26T00:08:56.520Z,1009.13
2016-05-26T00:09:56.569Z,1009.16
2016-05-26T00:10:56.588Z,1009.16
2016-05-26T00:11:56.636Z,1009.17
2016-05-26T00:12:56.671Z,1009.21
2016-05-26T00:13:56.690Z,1009.18
2016-05-26T00:14:56.724Z,1009.25
2016-05-26T00:15:56.758Z,1009.23
2016-05-26T00:16:56.791Z,1009.21
2016-05-26T00:17:57.091Z,1009.23
2016-05-26T00:18:56.860Z,1009.23
2016-05-26T00:19:57.238Z,1009.23
2016-05-26T00:20:56.927Z,1009.24
2016-05-26T00:21:56.961Z,1009.23
2016-05-26T00:22:56.996Z,1009.21
2016-05-26T00:23:57.029Z,1009.2
2016-05-26T00:24:57.126Z,1009.18
2016-05-26T00:25:57.096Z,1009.22
2016-05-26T00:26:57.131Z,1009.2
2016-05-26T00:27:57.165Z,1009.19
2016-05-26T00:28:57.198Z,1009.18
2016-05-26T00:29:57.232Z,1009.18
2016-05-26T00:30:57.267Z,1009.19
2016-05-26T00:31:57.315Z,1009.2
2016-05-26T00:32:57.334Z,1009.21
2016-05-26T00:33:57.368Z,1009.15
2016-05-26T00:34:57.418Z,1009.17
2016-05-26T00:35:57.437Z,1009.16
2016-05-26T00:36:57.471Z,1009.16
2016-05-26T00:37:57.504Z,1009.14
2016-05-26T00:38:57.539Z,1009.13
2016-05-26T00:39:57.572Z,1009.13
2016-05-26T00:40:57.606Z,1009.13
2016-05-26T00:41:57.640Z,1009.15
2016-05-26T00:42:57.674Z,1009.17
2016-05-26T00:43:57.708Z,1009.18
2016-05-26T00:44:57.741Z,1009.16
2016-05-26T00:45:57.775Z,1009.2
2016-05-26T00:46:57.810Z,1009.19
2016-05-26T00:47:57.844Z,1009.21
2016-05-26T00:48:57.877Z,1009.14
2016-05-26T00:49:57.911Z,1009.19
2016-05-26T00:50:57.946Z,1009.15
2016-05-26T00:51:57.979Z,1009.15
2016-05-26T00:52:58.013Z,1009.17
2016-05-26T00:53:58.047Z,1009.16
2016-05-26T00:54:58.081Z,1009.15
2016-05-26T00:55:58.115Z,1009.16
2016-05-26T00:56:58.149Z,1009.18
2016-05-26T00:57:58.183Z,1009.18
2016-05-26T00:58:58.217Z,1009.13
2016-05-26T00:59:58.251Z,1009.14
2016-05-26T01:00:58.285Z,1009.19
2016-05-26T01:01:58.318Z,1009.14
2016-05-26T01:02:58.353Z,1009.17
2016-05-26T01:03:58.387Z,1009.18
2016-05-26T01:04:58.421Z,1009.18
2016-05-26T01:05:58.454Z,1009.17
2016-05-26T01:06:58.489Z,1009.19
2016-05-26T01:07:58.522Z,1009.21
2016-05-26T01:08:58.556Z,1009.19
2016-05-26T01:09:58.590Z,1009.16
2016-05-26T01:10:58.624Z,1009.21
2016-05-26T01:11:58.659Z,1009.2
2016-05-26T01:12:58.692Z,1009.19
2016-05-26T01:13:58.725Z,1009.21
2016-05-26T01:14:58.775Z,1009.23
2016-05-26T01:15:58.794Z,1009.22
2016-05-26T01:16:58.828Z,1009.24
2016-05-26T01:17:59.299Z,1009.21
2016-05-26T01:18:58.896Z,1009.21
2016-05-26T01:19:58.930Z,1009.2
2016-05-26T01:20:58.964Z,1009.19
2016-05-26T01:21:58.997Z,1009.23
2016-05-26T01:22:59.031Z,1009.21
2016-05-26T01:23:59.066Z,1009.2
2016-05-26T01:24:59.099Z,1009.19
2016-05-26T01:25:59.133Z,1009.22
2016-05-26T01:26:59.167Z,1009.21
2016-05-26T01:27:59.201Z,1009.2
2016-05-26T01:28:59.235Z,1009.19
2016-05-26T01:29:59.268Z,1009.23
2016-05-26T01:30:59.304Z,1009.22
2016-05-26T01:31:59.337Z,1009.19
2016-05-26T01:32:59.371Z,1009.19
2016-05-26T01:33:59.404Z,1009.17
2016-05-26T01:34:59.439Z,1009.17
2016-05-26T01:35:59.473Z,1009.17
2016-05-26T01:36:59.507Z,1009.18
2016-05-26T01:37:59.541Z,1009.18
2016-05-26T01:38:59.575Z,1009.2
2016-05-26T01:39:59.609Z,1009.18
2016-05-26T01:40:59.658Z,1009.17
2016-05-26T01:41:59.676Z,1009.19
2016-05-26T01:42:59.711Z,1009.17
2016-05-26T01:43:59.744Z,1009.19
2016-05-26T01:44:59.778Z,1009.2
2016-05-26T01:45:59.811Z,1009.18
2016-05-26T01:46:59.846Z,1009.19
2016-05-26T01:47:59.880Z,1009.17
2016-05-26T01:48:59.913Z,1009.21
2016-05-26T01:49:59.963Z,1009.22
2016-05-26T01:50:59.982Z,1009.17
2016-05-26T01:52:00.016Z,1009.22
2016-05-26T01:53:00.066Z,1009.22
2016-05-26T01:54:00.099Z,1009.22
2016-05-26T01:55:00.118Z,1009.21
2016-05-26T01:56:00.152Z,1009.24
2016-05-26T01:57:00.186Z,1009.25
2016-05-26T01:58:00.219Z,1009.24
2016-05-26T01:59:00.269Z,1009.26
2016-05-26T02:00:00.302Z,1009.23
2016-05-26T02:01:00.321Z,1009.26
2016-05-26T02:02:00.371Z,1009.25
2016-05-26T02:03:00.779Z,1009.23
2016-05-26T02:04:00.423Z,1009.23
2016-05-26T02:05:00.472Z,1009.21
2016-05-26T02:06:00.491Z,1009.27
2016-05-26T02:07:00.525Z,1009.25
2016-05-26T02:08:00.574Z,1009.23
2016-05-26T02:09:00.592Z,1009.25
2016-05-26T02:10:00.642Z,1009.24
2016-05-26T02:11:00.676Z,1009.3
2016-05-26T02:12:00.709Z,1009.28
2016-05-26T02:13:00.729Z,1009.27
2016-05-26T02:14:00.778Z,1009.27
2016-05-26T02:15:00.811Z,1009.3
2016-05-26T02:16:00.845Z,1009.28
2016-05-26T02:17:00.880Z,1009.31
2016-05-26T02:18:00.898Z,1009.28
2016-05-26T02:19:00.948Z,1009.28
2016-05-26T02:20:00.981Z,1009.33
2016-05-26T02:21:01.016Z,1009.33
2016-05-26T02:22:01.050Z,1009.33
2016-05-26T02:23:01.083Z,1009.31
2016-05-26T02:24:01.117Z,1009.31
2016-05-26T02:25:01.151Z,1009.32
2016-05-26T02:26:01.185Z,1009.3
2016-05-26T02:27:01.219Z,1009.29
2016-05-26T02:28:01.252Z,1009.28
2016-05-26T02:29:01.287Z,1009.28
2016-05-26T02:30:01.321Z,1009.3
2016-05-26T02:31:01.354Z,1009.29
2016-05-26T02:32:01.388Z,1009.28
2016-05-26T02:33:01.532Z,1009.3
2016-05-26T02:34:01.457Z,1009.28
2016-05-26T02:35:01.491Z,1009.3
2016-05-26T02:36:01.524Z,1009.29
2016-05-26T02:37:01.559Z,1009.32
2016-05-26T02:38:01.593Z,1009.29
2016-05-26T02:39:01.626Z,1009.26
2016-05-26T02:40:01.660Z,1009.25
2016-05-26T02:41:01.695Z,1009.25
2016-05-26T02:42:01.728Z,1009.23
2016-05-26T02:43:01.762Z,1009.28
2016-05-26T02:44:01.796Z,1009.29
2016-05-26T02:45:01.830Z,1009.31
2016-05-26T02:46:01.926Z,1009.29
2016-05-26T02:47:01.960Z,1009.29
2016-05-26T02:48:01.947Z,1009.29
2016-05-26T02:49:01.966Z,1009.27
2016-05-26T02:50:01.999Z,1009.3
2016-05-26T02:51:02.033Z,1009.27
2016-05-26T02:52:02.067Z,1009.32
2016-05-26T02:53:02.102Z,1009.28
2016-05-26T02:54:02.136Z,1009.32
2016-05-26T02:55:02.170Z,1009.3
2016-05-26T02:56:02.202Z,1009.31
2016-05-26T02:57:02.238Z,1009.32
2016-05-26T02:58:02.272Z,1009.3
2016-05-26T02:59:02.305Z,1009.29
2016-05-26T03:00:02.339Z,1009.33
2016-05-26T03:01:02.373Z,1009.32
2016-05-26T03:02:02.407Z,1009.29
2016-05-26T03:03:02.441Z,1009.36
2016-05-26T03:04:02.474Z,1009.36
2016-05-26T03:05:02.509Z,1009.35
2016-05-26T03:06:02.543Z,1009.36
2016-05-26T03:07:02.576Z,1009.38
2016-05-26T03:08:02.611Z,1009.31
2016-05-26T03:09:02.645Z,1009.3
2016-05-26T03:10:02.678Z,1009.33
2016-05-26T03:11:02.712Z,1009.34
2016-05-26T03:12:02.746Z,1009.32
2016-05-26T03:13:02.781Z,1009.34
2016-05-26T03:14:02.815Z,1009.29
2016-05-26T03:15:02.848Z,1009.28
2016-05-26T03:16:02.882Z,1009.33
2016-05-26T03:17:02.917Z,1009.29
2016-05-26T03:18:02.950Z,1009.3
2016-05-26T03:19:03.000Z,1009.33
2016-05-26T03:20:03.017Z,1009.27
2016-05-26T03:21:03.052Z,1009.29
2016-05-26T03:22:03.086Z,1009.27
2016-05-26T03:23:03.119Z,1009.27
2016-05-26T03:24:03.153Z,1009.28
2016-05-26T03:25:03.188Z,1009.26
2016-05-26T03:26:03.221Z,1009.24
2016-05-26T03:27:03.255Z,1009.25
2016-05-26T03:28:03.289Z,1009.26
2016-05-26T03:29:03.339Z,1009.26
2016-05-26T03:30:03.357Z,1009.25
2016-05-26T03:31:03.391Z,1009.25
2016-05-26T03:32:03.425Z,1009.3
2016-05-26T03:33:03.460Z,1009.33
2016-05-26T03:34:03.493Z,1009.33
2016-05-26T03:35:03.526Z,1009.33
2016-05-26T03:36:03.561Z,1009.34
2016-05-26T03:37:03.595Z,1009.33
2016-05-26T03:38:03.629Z,1009.37
2016-05-26T03:39:03.662Z,1009.32
2016-05-26T03:40:03.696Z,1009.38
2016-05-26T03:41:03.731Z,1009.34
2016-05-26T03:42:03.764Z,1009.38
2016-05-26T03:43:03.798Z,1009.37
2016-05-26T03:44:03.832Z,1009.37
2016-05-26T03:45:03.866Z,1009.4
2016-05-26T03:46:03.900Z,1009.42
2016-05-26T03:47:03.934Z,1009.36
2016-05-26T03:48:03.968Z,1009.44
2016-05-26T03:49:04.003Z,1009.46
2016-05-26T03:50:04.036Z,1009.46
2016-05-26T03:51:04.070Z,1009.46
2016-05-26T03:52:04.103Z,1009.48
2016-05-26T03:53:04.138Z,1009.5
2016-05-26T03:54:04.172Z,1009.46
2016-05-26T03:55:04.206Z,1009.48
2016-05-26T03:56:04.224Z,1009.53
2016-05-26T03:57:04.274Z,1009.49
2016-05-26T03:58:04.291Z,1009.49
2016-05-26T03:59:04.326Z,1009.49
2016-05-26T04:00:04.375Z,1009.48
2016-05-26T04:01:04.394Z,1009.48
2016-05-26T04:02:04.427Z,1009.47
2016-05-26T04:03:04.477Z,1009.49
2016-05-26T04:04:04.496Z,1009.5
2016-05-26T04:05:04.530Z,1009.49
2016-05-26T04:06:04.579Z,1009.49
2016-05-26T04:07:04.598Z,1009.46
2016-05-26T04:08:04.632Z,1009.47
2016-05-26T04:09:04.696Z,1009.47
2016-05-26T04:10:04.699Z,1009.48
2016-05-26T04:11:04.733Z,1009.49
2016-05-26T04:12:04.767Z,1009.5
2016-05-26T04:13:04.801Z,1009.52
2016-05-26T04:14:04.851Z,1009.5
2016-05-26T04:15:04.869Z,1009.52
2016-05-26T04:16:04.903Z,1009.53
2016-05-26T04:17:04.936Z,1009.51
2016-05-26T04:18:05.549Z,1009.54
2016-05-26T04:19:05.006Z,1009.53
2016-05-26T04:20:05.038Z,1009.53
2016-05-26T04:21:05.072Z,1009.53
2016-05-26T04:22:05.106Z,1009.53
2016-05-26T04:23:05.141Z,1009.53
2016-05-26T04:24:05.175Z,1009.55
2016-05-26T04:25:05.208Z,1009.56
2016-05-26T04:26:05.242Z,1009.6
2016-05-26T04:27:05.277Z,1009.61
2016-05-26T04:28:05.310Z,1009.56
2016-05-26T04:29:05.344Z,1009.62
2016-05-26T04:30:05.378Z,1009.63
2016-05-26T04:31:05.412Z,1009.66
2016-05-26T04:32:05.446Z,1009.64
2016-05-26T04:33:05.480Z,1009.65
2016-05-26T04:34:05.513Z,1009.65
2016-05-26T04:35:05.548Z,1009.66
2016-05-26T04:36:05.581Z,1009.66
2016-05-26T04:37:05.632Z,1009.7
2016-05-26T04:38:05.650Z,1009.71
2016-05-26T04:39:05.684Z,1009.74
2016-05-26T04:40:05.718Z,1009.73
2016-05-26T04:41:05.751Z,1009.73
2016-05-26T04:42:05.785Z,1009.76
2016-05-26T04:43:05.820Z,1009.8
2016-05-26T04:44:05.853Z,1009.8
2016-05-26T04:45:05.887Z,1009.77
2016-05-26T04:46:05.921Z,1009.74
2016-05-26T04:47:05.955Z,1009.81
2016-05-26T04:48:05.989Z,1009.79
2016-05-26T04:49:06.023Z,1009.78
2016-05-26T04:50:06.056Z,1009.82
2016-05-26T04:51:06.091Z,1009.78
2016-05-26T04:52:06.125Z,1009.81
2016-05-26T04:53:06.159Z,1009.8
2016-05-26T04:54:06.193Z,1009.81
2016-05-26T04:55:06.226Z,1009.84
2016-05-26T04:56:06.261Z,1009.82
2016-05-26T04:57:06.295Z,1009.79
2016-05-26T04:58:06.328Z,1009.8
2016-05-26T04:59:06.363Z,1009.79
2016-05-26T05:00:06.411Z,1009.79
2016-05-26T05:01:06.430Z,1009.82
2016-05-26T05:02:06.480Z,1009.77
2016-05-26T05:03:06.669Z,1009.78
2016-05-26T05:04:06.547Z,1009.81
2016-05-26T05:05:06.581Z,1009.78
2016-05-26T05:06:06.615Z,1009.82
2016-05-26T05:07:06.650Z,1009.81
2016-05-26T05:08:06.683Z,1009.81
2016-05-26T05:09:06.717Z,1009.8
2016-05-26T05:10:06.751Z,1009.78
2016-05-26T05:11:06.785Z,1009.78
2016-05-26T05:12:06.819Z,1009.77
2016-05-26T05:13:06.869Z,1009.73
2016-05-26T05:14:06.887Z,1009.73
2016-05-26T05:15:06.921Z,1009.73
2016-05-26T05:16:06.955Z,1009.78
2016-05-26T05:17:06.989Z,1009.77
2016-05-26T05:18:07.272Z,1009.78
2016-05-26T05:19:07.072Z,1009.79
2016-05-26T05:20:07.106Z,1009.83
2016-05-26T05:21:07.140Z,1009.81
2016-05-26T05:22:07.174Z,1009.84
2016-05-26T05:23:07.209Z,1009.86
2016-05-26T05:24:07.242Z,1009.85
2016-05-26T05:25:07.291Z,1009.87
2016-05-26T05:26:07.325Z,1009.88
2016-05-26T05:27:07.359Z,1009.88
2016-05-26T05:28:07.394Z,1009.91
2016-05-26T05:29:07.428Z,1009.9
2016-05-26T05:30:07.477Z,1009.88
2016-05-26T05:31:07.511Z,1009.93
2016-05-26T05:32:07.530Z,1009.92
2016-05-26T05:33:07.860Z,1009.95
2016-05-26T05:34:07.613Z,1009.96
2016-05-26T05:35:07.647Z,1009.97
2016-05-26T05:36:07.680Z,1009.96
2016-05-26T05:37:07.715Z,1009.99
2016-05-26T05:38:07.748Z,1009.94
2016-05-26T05:39:07.798Z,1009.95
2016-05-26T05:40:07.832Z,1009.96
2016-05-26T05:41:07.866Z,1009.93
2016-05-26T05:42:07.899Z,1009.95
2016-05-26T05:43:07.949Z,1009.96
2016-05-26T05:44:07.983Z,1010
2016-05-26T05:45:08.032Z,1010.02
2016-05-26T05:46:08.051Z,1009.99
2016-05-26T05:47:08.101Z,1010.03
2016-05-26T05:48:08.151Z,1009.98
2016-05-26T05:49:08.184Z,1009.98
2016-05-26T05:50:08.203Z,1009.99
2016-05-26T05:51:08.253Z,1010.01
2016-05-26T05:52:08.286Z,1009.98
2016-05-26T05:53:08.319Z,1010
2016-05-26T05:54:08.369Z,1010.02
2016-05-26T05:55:08.403Z,1010.03
2016-05-26T05:56:08.437Z,1010.01
2016-05-26T05:57:08.471Z,1010.02
2016-05-26T05:58:08.521Z,1010.06
2016-05-26T05:59:08.570Z,1010.05
2016-05-26T06:00:08.588Z,1010.03
2016-05-26T06:01:08.639Z,1010.06
2016-05-26T06:02:08.672Z,1010.05
2016-05-26T06:03:08.769Z,1010.03
2016-05-26T06:04:08.756Z,1010.01
2016-05-26T06:05:08.790Z,1010.02
2016-05-26T06:06:08.824Z,1010.01
2016-05-26T06:07:08.857Z,1010.04
2016-05-26T06:08:08.891Z,1010.01
2016-05-26T06:09:08.941Z,1010.01
2016-05-26T06:10:08.975Z,1010.01
2016-05-26T06:11:09.024Z,1010.02
2016-05-26T06:12:09.043Z,1010.04
2016-05-26T06:13:09.093Z,1010.03
2016-05-26T06:14:09.126Z,1010.03
2016-05-26T06:15:09.176Z,1010.04
2016-05-26T06:16:09.209Z,1010.03
2016-05-26T06:17:09.243Z,1010.04
2016-05-26T06:18:09.279Z,1010.04
2016-05-26T06:19:09.312Z,1010.09
2016-05-26T06:20:09.346Z,1010.07
2016-05-26T06:21:09.395Z,1010.06
2016-05-26T06:22:09.429Z,1010.08
2016-05-26T06:23:09.464Z,1010.06
2016-05-26T06:24:09.497Z,1010.1
2016-05-26T06:25:09.531Z,1010.08
2016-05-26T06:26:09.581Z,1010.12
2016-05-26T06:27:09.614Z,1010.12
2016-05-26T06:28:09.648Z,1010.13
2016-05-26T06:29:09.683Z,1010.09
2016-05-26T06:30:09.732Z,1010.15
2016-05-26T06:31:09.766Z,1010.15
2016-05-26T06:32:09.800Z,1010.17
2016-05-26T06:33:09.849Z,1010.21
2016-05-26T06:34:09.868Z,1010.21
2016-05-26T06:35:09.916Z,1010.23
2016-05-26T06:36:09.951Z,1010.23
2016-05-26T06:37:10.002Z,1010.23
2016-05-26T06:38:10.019Z,1010.22
2016-05-26T06:39:10.069Z,1010.23
2016-05-26T06:40:10.102Z,1010.22
2016-05-26T06:41:10.137Z,1010.28
2016-05-26T06:42:10.171Z,1010.24
2016-05-26T06:43:10.221Z,1010.28
2016-05-26T06:44:10.254Z,1010.31
2016-05-26T06:45:10.304Z,1010.3
2016-05-26T06:46:10.322Z,1010.31
2016-05-26T06:47:10.371Z,1010.31
2016-05-26T06:48:10.406Z,1010.31
2016-05-26T06:49:10.439Z,1010.31
2016-05-26T06:50:10.473Z,1010.31
2016-05-26T06:51:10.523Z,1010.3
2016-05-26T06:52:10.557Z,1010.29
2016-05-26T06:53:10.606Z,1010.31
2016-05-26T06:54:10.624Z,1010.3
2016-05-26T06:55:10.675Z,1010.32
2016-05-26T06:56:10.708Z,1010.35
2016-05-26T06:57:10.742Z,1010.33
2016-05-26T06:58:10.776Z,1010.35
2016-05-26T06:59:10.825Z,1010.37
2016-05-26T07:00:10.859Z,1010.32
2016-05-26T07:01:10.894Z,1010.36
2016-05-26T07:02:10.928Z,1010.37
2016-05-26T07:03:10.977Z,1010.37
2016-05-26T07:04:11.011Z,1010.41
2016-05-26T07:05:11.045Z,1010.39
2016-05-26T07:06:11.079Z,1010.39
2016-05-26T07:07:11.128Z,1010.39
2016-05-26T07:08:11.162Z,1010.41
2016-05-26T07:09:11.196Z,1010.41
2016-05-26T07:10:11.230Z,1010.43
2016-05-26T07:11:11.263Z,1010.41
2016-05-26T07:12:11.313Z,1010.42
2016-05-26T07:13:11.348Z,1010.43
2016-05-26T07:14:11.382Z,1010.43
2016-05-26T07:15:11.431Z,1010.38
2016-05-26T07:16:11.465Z,1010.35
2016-05-26T07:17:11.498Z,1010.36
2016-05-26T07:18:11.908Z,1010.37
2016-05-26T07:19:11.583Z,1010.42
2016-05-26T07:20:11.632Z,1010.36
2016-05-26T07:21:11.666Z,1010.38
2016-05-26T07:22:11.684Z,1010.35
2016-05-26T07:23:11.734Z,1010.34
2016-05-26T07:24:11.768Z,1010.37
2016-05-26T07:25:11.801Z,1010.33
2016-05-26T07:26:11.851Z,1010.33
2016-05-26T07:27:11.901Z,1010.34
2016-05-26T07:28:11.919Z,1010.29
2016-05-26T07:29:11.953Z,1010.32
2016-05-26T07:30:12.002Z,1010.32
2016-05-26T07:31:12.036Z,1010.34
2016-05-26T07:32:12.070Z,1010.31
2016-05-26T07:33:12.120Z,1010.31
2016-05-26T07:34:12.154Z,1010.33
2016-05-26T07:35:12.188Z,1010.3
2016-05-26T07:36:12.237Z,1010.27
2016-05-26T07:37:12.286Z,1010.28
2016-05-26T07:38:12.345Z,1010.31
2016-05-26T07:39:12.403Z,1010.3
2016-05-26T07:40:12.478Z,1010.24
2016-05-26T07:41:12.537Z,1010.28
2016-05-26T07:42:12.587Z,1010.26
2016-05-26T07:43:12.646Z,1010.28
2016-05-26T07:44:12.688Z,1010.28
2016-05-26T07:45:12.730Z,1010.32
2016-05-26T07:46:12.789Z,1010.31
2016-05-26T07:47:12.829Z,1010.32
2016-05-26T07:48:12.866Z,1010.27
2016-05-26T07:49:12.919Z,1010.34
2016-05-26T07:50:12.957Z,1010.36
2016-05-26T07:51:12.994Z,1010.34
2016-05-26T07:52:13.046Z,1010.33
2016-05-26T07:53:13.081Z,1010.34
2016-05-26T07:54:13.115Z,1010.33
2016-05-26T07:55:13.167Z,1010.34
2016-05-26T07:56:13.202Z,1010.36
2016-05-26T07:57:13.252Z,1010.34
2016-05-26T07:58:13.286Z,1010.37
2016-05-26T07:59:13.336Z,1010.29
2016-05-26T08:00:13.371Z,1010.37
2016-05-26T08:01:13.420Z,1010.36
2016-05-26T08:02:13.455Z,1010.32
2016-05-26T08:03:13.504Z,1010.38
2016-05-26T08:04:13.538Z,1010.35
2016-05-26T08:05:13.588Z,1010.42
2016-05-26T08:06:13.622Z,1010.36
2016-05-26T08:07:13.671Z,1010.35
2016-05-26T08:08:13.720Z,1010.38
2016-05-26T08:09:13.755Z,1010.36
2016-05-26T08:10:13.805Z,1010.29
2016-05-26T08:11:13.854Z,1010.29
2016-05-26T08:12:13.888Z,1010.26
2016-05-26T08:13:13.937Z,1010.29
2016-05-26T08:14:13.987Z,1010.31
2016-05-26T08:15:14.021Z,1010.33
2016-05-26T08:16:14.071Z,1010.32
2016-05-26T08:17:14.104Z,1010.27
2016-05-26T08:18:14.153Z,1010.25
2016-05-26T08:19:14.188Z,1010.24
2016-05-26T08:20:14.237Z,1010.23
2016-05-26T08:21:14.303Z,1010.25
2016-05-26T08:22:14.336Z,1010.28
2016-05-26T08:23:14.370Z,1010.25
2016-05-26T08:24:14.420Z,1010.23
2016-05-26T08:25:14.469Z,1010.24
2016-05-26T08:26:14.503Z,1010.25
2016-05-26T08:27:14.553Z,1010.18
2016-05-26T08:28:14.602Z,1010.2
2016-05-26T08:29:14.652Z,1010.17
2016-05-26T08:30:14.686Z,1010.19
2016-05-26T08:31:14.719Z,1010.18
2016-05-26T08:32:14.785Z,1010.22
2016-05-26T08:33:14.836Z,1010.16
2016-05-26T08:34:14.852Z,1010.15
2016-05-26T08:35:14.902Z,1010.22
2016-05-26T08:36:14.952Z,1010.2
2016-05-26T08:37:14.986Z,1010.2
2016-05-26T08:38:15.021Z,1010.25
2016-05-26T08:39:15.070Z,1010.22
2016-05-26T08:40:15.103Z,1010.23
2016-05-26T08:41:15.154Z,1010.21
2016-05-26T08:42:15.203Z,1010.22
2016-05-26T08:43:15.237Z,1010.2
2016-05-26T08:44:15.271Z,1010.2
2016-05-26T08:45:15.320Z,1010.25
2016-05-26T08:46:15.354Z,1010.2
2016-05-26T08:47:15.404Z,1010.22
2016-05-26T08:48:15.438Z,1010.21
2016-05-26T08:49:15.487Z,1010.2
2016-05-26T08:50:15.521Z,1010.18
2016-05-26T08:51:15.571Z,1010.23
2016-05-26T08:52:15.620Z,1010.21
2016-05-26T08:53:15.654Z,1010.21
2016-05-26T08:54:15.688Z,1010.22
2016-05-26T08:55:15.737Z,1010.22
2016-05-26T08:56:15.772Z,1010.19
2016-05-26T08:57:16.712Z,1010.19
2016-05-26T08:58:15.855Z,1010.21
2016-05-26T08:59:15.905Z,1010.21
2016-05-26T09:00:15.939Z,1010.21
2016-05-26T09:01:15.988Z,1010.23
2016-05-26T09:02:16.022Z,1010.26
2016-05-26T09:03:16.150Z,1010.22
2016-05-26T09:04:16.105Z,1010.22
2016-05-26T09:05:16.155Z,1010.2
2016-05-26T09:06:16.189Z,1010.18
2016-05-26T09:07:16.223Z,1010.16
2016-05-26T09:08:16.272Z,1010.17
2016-05-26T09:09:16.307Z,1010.14
2016-05-26T09:10:16.340Z,1010.17
2016-05-26T09:11:16.390Z,1010.15
2016-05-26T09:12:16.424Z,1010.21
2016-05-26T09:13:16.473Z,1010.2
2016-05-26T09:14:16.507Z,1010.21
2016-05-26T09:15:16.557Z,1010.22
2016-05-26T09:16:16.607Z,1010.22
2016-05-26T09:17:16.640Z,1010.26
2016-05-26T09:18:16.674Z,1010.23
2016-05-26T09:19:16.724Z,1010.2
2016-05-26T09:20:16.758Z,1010.25
2016-05-26T09:21:16.807Z,1010.23
2016-05-26T09:22:16.857Z,1010.23
2016-05-26T09:23:16.892Z,1010.22
2016-05-26T09:24:16.941Z,1010.21
2016-05-26T09:25:16.974Z,1010.23
2016-05-26T09:26:17.025Z,1010.21
2016-05-26T09:27:17.073Z,1010.19
2016-05-26T09:28:17.108Z,1010.17
2016-05-26T09:29:17.158Z,1010.17
2016-05-26T09:30:17.207Z,1010.13
2016-05-26T09:31:17.256Z,1010.17
2016-05-26T09:32:17.291Z,1010.18
2016-05-26T09:33:17.340Z,1010.16
2016-05-26T09:34:17.389Z,1010.15
2016-05-26T09:35:17.439Z,1010.18
2016-05-26T09:36:17.488Z,1010.18
2016-05-26T09:37:17.522Z,1010.17
2016-05-26T09:38:17.572Z,1010.16
2016-05-26T09:39:17.622Z,1010.09
2016-05-26T09:40:17.671Z,1010.11
2016-05-26T09:41:17.721Z,1010.11
2016-05-26T09:42:17.771Z,1010.07
2016-05-26T09:43:17.820Z,1010.15
2016-05-26T09:44:17.869Z,1010.12
2016-05-26T09:45:17.919Z,1010.1
2016-05-26T09:46:17.954Z,1010.13
2016-05-26T09:47:18.002Z,1010.15
2016-05-26T09:48:18.052Z,1010.16
2016-05-26T09:49:18.102Z,1010.14
2016-05-26T09:50:18.151Z,1010.16
2016-05-26T09:51:18.201Z,1010.11
2016-05-26T09:52:18.250Z,1010.11
2016-05-26T09:53:18.301Z,1010.13
2016-05-26T09:54:18.334Z,1010.15
2016-05-26T09:55:18.399Z,1010.2
2016-05-26T09:56:18.433Z,1010.19
2016-05-26T09:57:18.483Z,1010.17
2016-05-26T09:58:18.532Z,1010.16
2016-05-26T09:59:18.567Z,1010.16
2016-05-26T10:00:18.616Z,1010.13
2016-05-26T10:01:18.665Z,1010.16
2016-05-26T10:02:18.699Z,1010.2
2016-05-26T10:03:18.749Z,1010.2
2016-05-26T10:04:18.798Z,1010.11
2016-05-26T10:05:18.848Z,1010.12
2016-05-26T10:06:18.882Z,1010.16
2016-05-26T10:07:18.931Z,1010.16
2016-05-26T10:08:18.981Z,1010.15
2016-05-26T10:09:19.015Z,1010.19
2016-05-26T10:10:19.064Z,1010.16
2016-05-26T10:11:19.114Z,1010.17
2016-05-26T10:12:19.149Z,1010.18
2016-05-26T10:13:19.197Z,1010.14
2016-05-26T10:14:19.247Z,1010.1
2016-05-26T10:15:19.282Z,1010.09
2016-05-26T10:16:19.330Z,1010.11
2016-05-26T10:17:19.379Z,1010.07
2016-05-26T10:18:19.415Z,1010.12
2016-05-26T10:19:19.463Z,1010.09
2016-05-26T10:20:19.513Z,1010.07
2016-05-26T10:21:19.562Z,1010.11
2016-05-26T10:22:19.596Z,1010.14
2016-05-26T10:23:19.631Z,1010.14
2016-05-26T10:24:19.681Z,1010.14
2016-05-26T10:25:19.714Z,1010.2
2016-05-26T10:26:19.764Z,1010.16
2016-05-26T10:27:19.814Z,1010.14
2016-05-26T10:28:19.848Z,1010.14
2016-05-26T10:29:19.897Z,1010.14
2016-05-26T10:30:19.931Z,1010.13
2016-05-26T10:31:19.980Z,1010.1
2016-05-26T10:32:20.030Z,1010.13
2016-05-26T10:33:20.064Z,1010.12
2016-05-26T10:34:20.113Z,1010.13
2016-05-26T10:35:20.147Z,1010.17
2016-05-26T10:36:20.196Z,1010.14
2016-05-26T10:37:20.231Z,1010.14
2016-05-26T10:38:20.280Z,1010.16
2016-05-26T10:39:20.314Z,1010.18
2016-05-26T10:40:20.364Z,1010.13
2016-05-26T10:41:20.413Z,1010.18
2016-05-26T10:42:20.447Z,1010.17
2016-05-26T10:43:20.496Z,1010.19
2016-05-26T10:44:20.530Z,1010.24
2016-05-26T10:45:20.597Z,1010.26
2016-05-26T10:46:20.615Z,1010.29
2016-05-26T10:47:20.664Z,1010.28
2016-05-26T10:48:20.698Z,1010.27
2016-05-26T10:49:20.748Z,1010.28
2016-05-26T10:50:20.796Z,1010.28
2016-05-26T10:51:20.832Z,1010.29
2016-05-26T10:52:20.881Z,1010.29
2016-05-26T10:53:20.915Z,1010.29
2016-05-26T10:54:20.948Z,1010.25
2016-05-26T10:55:20.998Z,1010.2
2016-05-26T10:56:21.031Z,1010.24
2016-05-26T10:57:21.081Z,1010.25
2016-05-26T10:58:21.131Z,1010.29
2016-05-26T10:59:21.165Z,1010.26
2016-05-26T11:00:21.214Z,1010.28
2016-05-26T11:01:21.248Z,1010.26
2016-05-26T11:02:21.283Z,1010.28
2016-05-26T11:03:21.425Z,1010.28
2016-05-26T11:04:21.381Z,1010.32
2016-05-26T11:05:21.416Z,1010.27
2016-05-26T11:06:21.450Z,1010.28
2016-05-26T11:07:21.499Z,1010.27
2016-05-26T11:08:21.533Z,1010.26
2016-05-26T11:09:21.583Z,1010.28
2016-05-26T11:10:21.616Z,1010.26
2016-05-26T11:11:21.666Z,1010.22
2016-05-26T11:12:21.700Z,1010.23
2016-05-26T11:13:21.749Z,1010.2
2016-05-26T11:14:21.783Z,1010.21
2016-05-26T11:15:21.832Z,1010.27
2016-05-26T11:16:21.882Z,1010.23
2016-05-26T11:17:21.916Z,1010.25
2016-05-26T11:18:21.966Z,1010.24
2016-05-26T11:19:22.000Z,1010.24
2016-05-26T11:20:22.049Z,1010.2
2016-05-26T11:21:22.084Z,1010.27
2016-05-26T11:22:22.133Z,1010.24
2016-05-26T11:23:22.167Z,1010.22
2016-05-26T11:24:22.217Z,1010.25
2016-05-26T11:25:22.251Z,1010.24
2016-05-26T11:26:22.300Z,1010.26
2016-05-26T11:27:22.334Z,1010.23
2016-05-26T11:28:22.383Z,1010.26
2016-05-26T11:29:22.434Z,1010.21
2016-05-26T11:30:22.467Z,1010.26
2016-05-26T11:31:22.517Z,1010.24
2016-05-26T11:32:22.550Z,1010.21
2016-05-26T11:33:22.600Z,1010.19
2016-05-26T11:34:22.634Z,1010.19
2016-05-26T11:35:22.684Z,1010.22
2016-05-26T11:36:22.749Z,1010.22
2016-05-26T11:37:22.767Z,1010.26
2016-05-26T11:38:22.801Z,1010.21
2016-05-26T11:39:22.850Z,1010.21
2016-05-26T11:40:22.900Z,1010.21
2016-05-26T11:41:22.934Z,1010.18
2016-05-26T11:42:22.984Z,1010.17
2016-05-26T11:43:23.018Z,1010.2
2016-05-26T11:44:23.067Z,1010.19
2016-05-26T11:45:23.116Z,1010.18
2016-05-26T11:46:23.151Z,1010.22
2016-05-26T11:47:23.200Z,1010.22
2016-05-26T11:48:23.235Z,1010.25
2016-05-26T11:49:23.284Z,1010.23
2016-05-26T11:50:23.333Z,1010.23
2016-05-26T11:51:23.368Z,1010.24
2016-05-26T11:52:23.433Z,1010.23
2016-05-26T11:53:23.466Z,1010.23
2016-05-26T11:54:23.501Z,1010.21
2016-05-26T11:55:23.550Z,1010.21
2016-05-26T11:56:23.600Z,1010.21
2016-05-26T11:57:23.634Z,1010.2
2016-05-26T11:58:23.683Z,1010.21
2016-05-26T11:59:23.733Z,1010.22
2016-05-26T12:00:23.767Z,1010.23
2016-05-26T12:01:23.816Z,1010.23
2016-05-26T12:02:23.865Z,1010.22
2016-05-26T12:03:23.900Z,1010.19
2016-05-26T12:04:23.950Z,1010.2
2016-05-26T12:05:23.983Z,1010.16
2016-05-26T12:06:24.033Z,1010.19
2016-05-26T12:07:24.083Z,1010.18
2016-05-26T12:08:24.116Z,1010.16